Etusivu
METAR-TAF:

METAR-TAF

Lentoasemat :

Oulu, Suomi

Oulun lentoasema

Leveyspiiri: 64-56N, Pituuspiiri: 025-22E, korkeus merenpinnasta: 12 m

Tämänhetkinen sää

Tämä raportti tehtiin 11 minuuttia sitten, kello 04.50 UTC
Tuuli 8 kn pohjoisesta
Lämpötila 9°C
Kosteus 57%
Ilmanpaine 1009 hPa
Näkyvyys 10 km tai enemmän
ei pilviä alle 1500 m:ssä eikä cumulonimbus-pilviä

METAR: EFOU 230450Z AUTO 35008KT CAVOK 09/01 Q1009

Aika: 08:01 (05:01 UTC)

Sääennuste

Tämä raportti tehtiin 2 tuntia ja 37 minuuttia sitten, kello 02.24 UTC
Ennuste voimassa 23. päivästä klo 03 UTC - 24. päivään klo 03 UTC
Tuuli 6 kn pohjoisen/luoteesta
Näkyvyys 10 km tai enemmän
ei pilviä alle 1500 m:ssä eikä cumulonimbus-pilviä

TAF: EFOU 230224Z 2303/2403 34006KT CAVOK

Säähavainnot ja -ennusteet yli 4000 lentoasemalta (METAR- ja TAF-raportit).

Käytössä olevat sääasemat on merkitty karttaan keltaisilla ja punaisilla pisteillä.

Aseta hiiri pisteen päälle nähdäksesi sääaseman nimen.

Klikkaa sitten nähdäksesi säähavainnot ja -ennusteet.

Kartan vaihtaminen: klikkaa mustalla rastilla varustettuja vihreitä pisteitä, niin voit zoomata sisään; viivalla varustettua vihreää pistettä, niin voit zoomata ulos tai vihreitä nuolia, niin pääset viereisille kartoille.


METAR-TAF: